Time;durP1;ratioP1;P1;durP2;ratioP2;P2;SDS_P1;SDS_P2;PMS_P1;PMS_P2;Temp;Humidity;BMP_temperature;BMP_pressure;BME280_temperature;BME280_humidity;BME280_pressure;Samples;Min_cycle;Max_cycle;Signal;HPM_P1;HPM_P2
2022/04/15 00:00:18;;;;;;;;;;;;;;;;;;1037968;28;4004;-70
2022/04/15 00:01:06;;;;;;;;;;;;;;;;;;1038198;28;4054;-70
2022/04/15 00:01:36;;;;;;;;;;;;;;;;;;1037978;28;4130;-70
2022/04/15 00:02:06;;;;;;;;;;;;;;;;;;1037414;28;4532;-70
2022/04/15 00:02:37;;;;;;;;;;;;;;;;;;1037950;28;3800;-69
2022/04/15 00:03:07;;;;;;;;;;;;;;;;;;1038382;28;4107;-70
2022/04/15 00:03:39;;;;;;;;;;;;;;;;;;1036874;28;4439;-70
2022/04/15 00:04:09;;;;;;;;;;;;;;;;;;1039071;28;1635;-70
2022/04/15 00:04:39;;;;;;;;;;;;;;;;;;1037441;28;3795;-70
2022/04/15 00:06:19;;;;;;;;;;;;;;;;;;1034962;28;3997;-70
2022/04/15 00:06:49;;;;;;;;;;;;;;;;;;1033507;28;3895;-70
2022/04/15 00:07:19;;;;;;;;;;;;;;;;;;1034290;28;4138;-70
2022/04/15 00:07:50;;;;;;;;;;;;;;;;;;1032833;28;3950;-69
2022/04/15 00:08:20;;;;;;;;;;;;;;;;;;1035078;28;2360;-72
2022/04/15 00:08:51;;;;;;;;;;;;;;;;;;1033627;28;4019;-71
2022/04/15 00:09:21;;;;;;;;;;;;;;;;;;1034937;28;3396;-70
2022/04/15 00:09:51;;;;;;;;;;;;;;;;;;1035037;28;4241;-70
2022/04/15 00:10:23;;;;;;;;;;;;;;;;;;1034240;28;3273;-70
2022/04/15 00:10:53;;;;;;;;;;;;;;;;;;1034000;28;4781;-70
2022/04/15 00:11:23;;;;;;;;;;;;;;;;;;1035335;28;2162;-69
2022/04/15 00:11:55;;;;;;;;;;;;;;;;;;1041189;28;4087;-70
2022/04/15 00:12:29;;;;;;;;;;;;;;;;;;1042150;28;4222;-70
2022/04/15 00:13:00;;;;;;;;;;;;;;;;;;1042161;28;3971;-70
2022/04/15 00:13:32;;;;;;;;;;;;;;;;;;1039315;28;4242;-70
2022/04/15 00:14:02;;;;;;;;;;;;;;;;;;1033260;28;1732;-70
2022/04/15 00:14:34;;;;;;;;;;;;;;;;;;1030339;28;4254;-70
2022/04/15 00:15:05;;;;;;;;;;;;;;;;;;1035296;28;2565;-69
2022/04/15 00:15:35;;;;;;;;;;;;;;;;;;1034273;28;4612;-70
2022/04/15 00:16:06;;;;;;;;;;;;;;;;;;1035371;28;3562;-71
2022/04/15 00:16:36;;;;;;;;;;;;;;;;;;1041880;28;3939;-70
2022/04/15 00:17:06;;;;;;;;;;;;;;;;;;1033475;28;4706;-70
2022/04/15 00:17:36;;;;;;;;;;;;;;;;;;1033508;28;4851;-70
2022/04/15 00:18:07;;;;;;;;;;;;;;;;;;1033767;28;3353;-70
2022/04/15 00:18:37;;;;;;;;;;;;;;;;;;1032805;28;4124;-70
2022/04/15 00:19:09;;;;;;;;;;;;;;;;;;1034502;28;1662;-70
2022/04/15 00:19:39;;;;;;;;;;;;;;;;;;1033217;28;4139;-70
2022/04/15 00:20:10;;;;;;;;;;;;;;;;;;1034184;28;2471;-70
2022/04/15 00:20:40;;;;;;;;;;;;;;;;;;1033061;28;4469;-69
2022/04/15 00:21:11;;;;;;;;;;;;;;;;;;1042671;28;1919;-70
2022/04/15 00:21:41;;;;;;;;;;;;;;;;;;1041388;28;4012;-70
2022/04/15 00:22:11;;;;;;;;;;;;;;;;;;1037083;28;3262;-69
2022/04/15 00:22:41;;;;;;;;;;;;;;;;;;1036694;28;4394;-70
2022/04/15 00:23:12;;;;;;;;;;;;;;;;;;1033864;28;2189;-70
2022/04/15 00:23:42;;;;;;;;;;;;;;;;;;1033124;28;4403;-71
2022/04/15 00:24:12;;;;;;;;;;;;;;;;;;1033747;28;3405;-70
2022/04/15 00:24:43;;;;;;;;;;;;;;;;;;1034780;28;3848;-70
2022/04/15 00:25:13;;;;;;;;;;;;;;;;;;1036246;28;1894;-69
2022/04/15 00:25:44;;;;;;;;;;;;;;;;;;1035988;28;3872;-70
2022/04/15 00:26:14;;;;;;;;;;;;;;;;;;1034595;28;3513;-71
2022/04/15 00:26:44;;;;;;;;;;;;;;;;;;1040420;28;3970;-69
2022/04/15 00:27:15;;;;;;;;;;;;;;;;;;1040546;28;4155;-70
2022/04/15 00:27:45;;;;;;;;;;;;;;;;;;1037748;28;3984;-70
2022/04/15 00:28:16;;;;;;;;;;;;;;;;;;1037918;28;2481;-71
2022/04/15 00:28:46;;;;;;;;;;;;;;;;;;1033231;28;3982;-71
2022/04/15 00:29:17;;;;;;;;;;;;;;;;;;1032420;28;1926;-70
2022/04/15 00:29:47;;;;;;;;;;;;;;;;;;1036078;28;3876;-69
2022/04/15 00:30:18;;;;;;;;;;;;;;;;;;1036402;28;3892;-70
2022/04/15 00:30:48;;;;;;;;;;;;;;;;;;1035935;28;3796;-69
2022/04/15 00:31:19;;;;;;;;;;;;;;;;;;1034685;28;1853;-71
2022/04/15 00:31:49;;;;;;;;;;;;;;;;;;1033193;28;4058;-70
2022/04/15 00:32:19;;;;;;;;;;;;;;;;;;1034239;28;2494;-70
2022/04/15 00:32:50;;;;;;;;;;;;;;;;;;1041337;28;3794;-69
2022/04/15 00:33:21;;;;;;;;;;;;;;;;;;1039104;28;3246;-69
2022/04/15 00:33:52;;;;;;;;;;;;;;;;;;1036301;28;4154;-69
2022/04/15 00:34:22;;;;;;;;;;;;;;;;;;1037527;28;2985;-70
2022/04/15 00:34:53;;;;;;;;;;;;;;;;;;1033906;28;5092;-70
2022/04/15 00:35:23;;;;;;;;;;;;;;;;;;1035977;28;3206;-69
2022/04/15 00:35:53;;;;;;;;;;;;;;;;;;1034293;28;4197;-71
2022/04/15 00:36:24;;;;;;;;;;;;;;;;;;1034318;28;3654;-69
2022/04/15 00:36:54;;;;;;;;;;;;;;;;;;1034337;28;4033;-69
2022/04/15 00:37:24;;;;;;;;;;;;;;;;;;1034601;28;3467;-69
2022/04/15 00:37:55;;;;;;;;;;;;;;;;;;1035178;28;4113;-71
2022/04/15 00:38:25;;;;;;;;;;;;;;;;;;1035820;28;2271;-70
2022/04/15 00:38:55;;;;;;;;;;;;;;;;;;1035780;28;3939;-71
2022/04/15 00:39:26;;;;;;;;;;;;;;;;;;1034653;28;2480;-70
2022/04/15 00:39:56;;;;;;;;;;;;;;;;;;1034820;28;3888;-70
2022/04/15 00:40:27;;;;;;;;;;;;;;;;;;1035707;28;3346;-72
2022/04/15 00:40:57;;;;;;;;;;;;;;;;;;1033623;28;4273;-70
2022/04/15 00:41:27;;;;;;;;;;;;;;;;;;1042006;28;4234;-69
2022/04/15 00:41:58;;;;;;;;;;;;;;;;;;1041573;28;3825;-69
2022/04/15 00:42:29;;;;;;;;;;;;;;;;;;1044354;28;2056;-69
2022/04/15 00:42:59;;;;;;;;;;;;;;;;;;1043570;28;4998;-69
2022/04/15 00:43:30;;;;;;;;;;;;;;;;;;1036378;28;3806;-70
2022/04/15 00:44:00;;;;;;;;;;;;;;;;;;1035244;28;2370;-70
2022/04/15 00:44:30;;;;;;;;;;;;;;;;;;1041464;28;4450;-71
2022/04/15 00:45:00;;;;;;;;;;;;;;;;;;1042011;28;1657;-70
2022/04/15 00:45:31;;;;;;;;;;;;;;;;;;1037021;28;4182;-70
2022/04/15 00:46:10;;;;;;;;;;;;;;;;;;1036978;28;3650;-70
2022/04/15 00:46:40;;;;;;;;;;;;;;;;;;1032567;28;4087;-70
2022/04/15 00:47:30;;;;;;;;;;;;;;;;;;1033016;28;2864;-70
2022/04/15 00:48:00;;;;;;;;;;;;;;;;;;1034028;28;3792;-70
2022/04/15 00:48:30;;;;;;;;;;;;;;;;;;1034347;28;4622;-70
2022/04/15 00:49:01;;;;;;;;;;;;;;;;;;1042526;28;1824;-71
2022/04/15 00:49:31;;;;;;;;;;;;;;;;;;1041916;28;3900;-70
2022/04/15 00:50:02;;;;;;;;;;;;;;;;;;1041686;28;2061;-70
2022/04/15 00:50:33;;;;;;;;;;;;;;;;;;1041192;28;4526;-69
2022/04/15 00:51:04;;;;;;;;;;;;;;;;;;1034524;28;3279;-70
2022/04/15 00:51:35;;;;;;;;;;;;;;;;;;1032462;28;3960;-69
2022/04/15 00:52:06;;;;;;;;;;;;;;;;;;1033244;28;2720;-70
2022/04/15 00:52:39;;;;;;;;;;;;;;;;;;1028997;28;4428;-69
2022/04/15 00:53:10;;;;;;;;;;;;;;;;;;1030474;28;4196;-70
2022/04/15 00:53:42;;;;;;;;;;;;;;;;;;1033611;28;3802;-69
2022/04/15 00:54:12;;;;;;;;;;;;;;;;;;1031866;28;3842;-69
2022/04/15 00:54:42;;;;;;;;;;;;;;;;;;1034455;28;4109;-70
2022/04/15 00:55:13;;;;;;;;;;;;;;;;;;1030436;28;3042;-70
2022/04/15 00:55:45;;;;;;;;;;;;;;;;;;1028570;28;4529;-70
2022/04/15 00:56:15;;;;;;;;;;;;;;;;;;1030346;28;3785;-70
2022/04/15 00:56:46;;;;;;;;;;;;;;;;;;1032415;28;3818;-70
2022/04/15 00:57:22;;;;;;;;;;;;;;;;;;1036810;28;2180;-69
2022/04/15 00:57:59;;;;;;;;;;;;;;;;;;1033211;28;3762;-69
2022/04/15 00:58:30;;;;;;;;;;;;;;;;;;1035207;28;2019;-70
2022/04/15 00:59:02;;;;;;;;;;;;;;;;;;1034436;28;3857;-70
2022/04/15 00:59:32;;;;;;;;;;;;;;;;;;1033918;28;3796;-69
2022/04/15 01:00:04;;;;;;;;;;;;;;;;;;1034966;28;1545;-70
2022/04/15 01:00:36;;;;;;;;;;;;;;;;;;1033710;28;3816;-70
2022/04/15 01:01:06;;;;;;;;;;;;;;;;;;1035155;28;2133;-70
2022/04/15 01:01:37;;;;;;;;;;;;;;;;;;1035053;28;3840;-70
2022/04/15 01:02:08;;;;;;;;;;;;;;;;;;1034392;28;1976;-71
2022/04/15 01:02:39;;;;;;;;;;;;;;;;;;1032794;28;3905;-69
2022/04/15 01:03:09;;;;;;;;;;;;;;;;;;1034572;28;4039;-71
2022/04/15 01:03:40;;;;;;;;;;;;;;;;;;1033160;28;4151;-70
2022/04/15 01:04:11;;;;;;;;;;;;;;;;;;1034434;28;2158;-69
2022/04/15 01:04:42;;;;;;;;;;;;;;;;;;1034408;28;4070;-70
2022/04/15 01:05:13;;;;;;;;;;;;;;;;;;1033060;28;3402;-69
2022/04/15 01:06:01;;;;;;;;;;;;;;;;;;1034301;28;4150;-69
2022/04/15 01:06:38;;;;;;;;;;;;;;;;;;1037412;28;3925;-70
2022/04/15 01:07:10;;;;;;;;;;;;;;;;;;1038123;28;3476;-70
2022/04/15 01:07:41;;;;;;;;;;;;;;;;;;1037685;28;3846;-69
2022/04/15 01:08:12;;;;;;;;;;;;;;;;;;1038320;28;1828;-70
2022/04/15 01:08:43;;;;;;;;;;;;;;;;;;1037318;28;4085;-71
2022/04/15 01:09:14;;;;;;;;;;;;;;;;;;1038780;28;3720;-70
2022/04/15 01:09:46;;;;;;;;;;;;;;;;;;1036891;28;3825;-70
2022/04/15 01:10:17;;;;;;;;;;;;;;;;;;1037957;28;1956;-70
2022/04/15 01:10:50;;;;;;;;;;;;;;;;;;1037924;28;3959;-70
2022/04/15 01:11:21;;;;;;;;;;;;;;;;;;1038623;28;1784;-70
2022/04/15 01:11:53;;;;;;;;;;;;;;;;;;1038623;28;4538;-69
2022/04/15 01:12:27;;;;;;;;;;;;;;;;;;1038931;28;2399;-70
2022/04/15 01:12:58;;;;;;;;;;;;;;;;;;1037717;28;4623;-71
2022/04/15 01:13:31;;;;;;;;;;;;;;;;;;1038765;28;1902;-68
2022/04/15 01:14:02;;;;;;;;;;;;;;;;;;1037669;28;3726;-70
2022/04/15 01:14:33;;;;;;;;;;;;;;;;;;1038000;28;3780;-70
2022/04/15 01:15:08;;;;;;;;;;;;;;;;;;1034279;28;3647;-70
2022/04/15 01:15:39;;;;;;;;;;;;;;;;;;1033975;28;3832;-70
2022/04/15 01:16:10;;;;;;;;;;;;;;;;;;1034462;28;3597;-70
2022/04/15 01:16:48;;;;;;;;;;;;;;;;;;1036227;28;3830;-71
2022/04/15 01:17:19;;;;;;;;;;;;;;;;;;1038838;28;3140;-70
2022/04/15 01:17:49;;;;;;;;;;;;;;;;;;1037292;28;4092;-70
2022/04/15 01:18:19;;;;;;;;;;;;;;;;;;1032745;28;3486;-69
2022/04/15 01:18:50;;;;;;;;;;;;;;;;;;1033617;28;3887;-69
2022/04/15 01:19:20;;;;;;;;;;;;;;;;;;1033445;28;3955;-70
2022/04/15 01:19:50;;;;;;;;;;;;;;;;;;1032958;28;3832;-70
2022/04/15 01:20:21;;;;;;;;;;;;;;;;;;1035241;28;2386;-71
2022/04/15 01:20:52;;;;;;;;;;;;;;;;;;1033411;28;3855;-70
2022/04/15 01:21:24;;;;;;;;;;;;;;;;;;1033751;28;3248;-70
2022/04/15 01:21:54;;;;;;;;;;;;;;;;;;1033569;28;3808;-70
2022/04/15 01:22:28;;;;;;;;;;;;;;;;;;1036221;28;3079;-70
2022/04/15 01:23:16;;;;;;;;;;;;;;;;;;1035201;28;4049;-70
2022/04/15 01:23:47;;;;;;;;;;;;;;;;;;1036306;28;3817;-70
2022/04/15 01:24:17;;;;;;;;;;;;;;;;;;1037888;28;2091;-71
2022/04/15 01:24:47;;;;;;;;;;;;;;;;;;1034058;28;3912;-70
2022/04/15 01:25:18;;;;;;;;;;;;;;;;;;1034864;28;2951;-71
2022/04/15 01:25:48;;;;;;;;;;;;;;;;;;1031552;28;4282;-70
2022/04/15 01:26:19;;;;;;;;;;;;;;;;;;1031291;28;3955;-71
2022/04/15 01:26:49;;;;;;;;;;;;;;;;;;1033321;28;3867;-70
2022/04/15 01:27:26;;;;;;;;;;;;;;;;;;1034366;28;2357;-69
2022/04/15 01:27:57;;;;;;;;;;;;;;;;;;1033361;28;3808;-70
2022/04/15 01:28:27;;;;;;;;;;;;;;;;;;1034613;28;1759;-71
2022/04/15 01:28:57;;;;;;;;;;;;;;;;;;1036882;28;3929;-70
2022/04/15 01:29:28;;;;;;;;;;;;;;;;;;1038162;28;2435;-69
2022/04/15 01:29:58;;;;;;;;;;;;;;;;;;1038898;28;3793;-70
2022/04/15 01:30:28;;;;;;;;;;;;;;;;;;1036957;28;2535;-70
2022/04/15 01:30:58;;;;;;;;;;;;;;;;;;1037784;28;4000;-71
2022/04/15 01:31:31;;;;;;;;;;;;;;;;;;1037427;28;2977;-69
2022/04/15 01:32:03;;;;;;;;;;;;;;;;;;1038096;28;3988;-70
2022/04/15 01:32:34;;;;;;;;;;;;;;;;;;1037836;28;3995;-70
2022/04/15 01:33:04;;;;;;;;;;;;;;;;;;1038711;28;1690;-70
2022/04/15 01:33:34;;;;;;;;;;;;;;;;;;1037177;28;3876;-70
2022/04/15 01:34:04;;;;;;;;;;;;;;;;;;1037944;28;3428;-71
2022/04/15 01:34:35;;;;;;;;;;;;;;;;;;1041923;28;4092;-69
2022/04/15 01:35:08;;;;;;;;;;;;;;;;;;1041231;28;2412;-72
2022/04/15 01:35:38;;;;;;;;;;;;;;;;;;1041665;28;3935;-69
2022/04/15 01:36:10;;;;;;;;;;;;;;;;;;1041505;28;3726;-71
2022/04/15 01:36:40;;;;;;;;;;;;;;;;;;1030984;28;4100;-70
2022/04/15 01:37:11;;;;;;;;;;;;;;;;;;1035216;28;3782;-70
2022/04/15 01:37:42;;;;;;;;;;;;;;;;;;1036529;28;3898;-69
2022/04/15 01:38:14;;;;;;;;;;;;;;;;;;1035593;28;2757;-70
2022/04/15 01:38:45;;;;;;;;;;;;;;;;;;1042036;28;3834;-70
2022/04/15 01:39:15;;;;;;;;;;;;;;;;;;1039842;28;2761;-70
2022/04/15 01:39:46;;;;;;;;;;;;;;;;;;1038720;28;4081;-70
2022/04/15 01:40:17;;;;;;;;;;;;;;;;;;1040080;28;3550;-70
2022/04/15 01:40:47;;;;;;;;;;;;;;;;;;1038963;28;3859;-70
2022/04/15 01:41:17;;;;;;;;;;;;;;;;;;1038386;28;1758;-71
2022/04/15 01:41:48;;;;;;;;;;;;;;;;;;1042810;28;4014;-70
2022/04/15 01:42:18;;;;;;;;;;;;;;;;;;1044017;28;3554;-70
2022/04/15 01:42:48;;;;;;;;;;;;;;;;;;1041880;28;3973;-69
2022/04/15 01:43:18;;;;;;;;;;;;;;;;;;1043034;28;2454;-70
2022/04/15 01:43:49;;;;;;;;;;;;;;;;;;1037767;28;3782;-71
2022/04/15 01:44:19;;;;;;;;;;;;;;;;;;1038377;28;3336;-69
2022/04/15 01:44:50;;;;;;;;;;;;;;;;;;1033591;28;3842;-70
2022/04/15 01:45:20;;;;;;;;;;;;;;;;;;1033943;28;2752;-70
2022/04/15 01:45:50;;;;;;;;;;;;;;;;;;1033953;28;3788;-70
2022/04/15 01:46:20;;;;;;;;;;;;;;;;;;1033799;28;2039;-70
2022/04/15 01:46:51;;;;;;;;;;;;;;;;;;1038323;28;3781;-70
2022/04/15 01:47:21;;;;;;;;;;;;;;;;;;1038781;28;1833;-69
2022/04/15 01:47:52;;;;;;;;;;;;;;;;;;1038778;28;3826;-70
2022/04/15 01:48:22;;;;;;;;;;;;;;;;;;1043469;28;1991;-70
2022/04/15 01:48:52;;;;;;;;;;;;;;;;;;1040946;28;3800;-69
2022/04/15 01:49:23;;;;;;;;;;;;;;;;;;1042579;28;1813;-69
2022/04/15 01:49:53;;;;;;;;;;;;;;;;;;1042124;28;4360;-70
2022/04/15 01:50:23;;;;;;;;;;;;;;;;;;1033625;28;2066;-69
2022/04/15 01:50:54;;;;;;;;;;;;;;;;;;1034106;28;3936;-71
2022/04/15 01:51:24;;;;;;;;;;;;;;;;;;1031946;28;3266;-69
2022/04/15 01:51:54;;;;;;;;;;;;;;;;;;1034088;28;3804;-71
2022/04/15 01:52:25;;;;;;;;;;;;;;;;;;1039209;28;1688;-69
2022/04/15 01:52:56;;;;;;;;;;;;;;;;;;1034036;28;4395;-69
2022/04/15 01:53:26;;;;;;;;;;;;;;;;;;1033029;28;2277;-71
2022/04/15 01:53:56;;;;;;;;;;;;;;;;;;1033971;28;3990;-70
2022/04/15 01:54:29;;;;;;;;;;;;;;;;;;1033996;28;3665;-69
2022/04/15 01:55:00;;;;;;;;;;;;;;;;;;1037634;28;3829;-69
2022/04/15 01:55:30;;;;;;;;;;;;;;;;;;1039738;28;4064;-69
2022/04/15 01:56:01;;;;;;;;;;;;;;;;;;1039555;28;2123;-69
2022/04/15 01:56:31;;;;;;;;;;;;;;;;;;1034056;28;3828;-70
2022/04/15 01:57:01;;;;;;;;;;;;;;;;;;1034236;28;1894;-69
2022/04/15 01:57:32;;;;;;;;;;;;;;;;;;1033701;28;4269;-69
2022/04/15 01:58:02;;;;;;;;;;;;;;;;;;1034334;28;3952;-70
2022/04/15 01:58:33;;;;;;;;;;;;;;;;;;1037506;28;3887;-69
2022/04/15 01:59:09;;;;;;;;;;;;;;;;;;1037273;28;3601;-70
2022/04/15 01:59:39;;;;;;;;;;;;;;;;;;1031487;28;4032;-70
2022/04/15 02:00:10;;;;;;;;;;;;;;;;;;1031449;28;3641;-70
2022/04/15 02:00:40;;;;;;;;;;;;;;;;;;1031158;28;3841;-69
2022/04/15 02:01:10;;;;;;;;;;;;;;;;;;1031508;28;3036;-70
2022/04/15 02:01:40;;;;;;;;;;;;;;;;;;1038081;28;4250;-70
2022/04/15 02:02:11;;;;;;;;;;;;;;;;;;1038294;28;3642;-69
2022/04/15 02:02:41;;;;;;;;;;;;;;;;;;1037661;28;3944;-70
2022/04/15 02:03:11;;;;;;;;;;;;;;;;;;1039170;28;1853;-69
2022/04/15 02:03:41;;;;;;;;;;;;;;;;;;1037206;28;3812;-69
2022/04/15 02:04:12;;;;;;;;;;;;;;;;;;1038618;28;2483;-69
2022/04/15 02:04:42;;;;;;;;;;;;;;;;;;1038593;28;4057;-70
2022/04/15 02:05:13;;;;;;;;;;;;;;;;;;1034564;28;2654;-70
2022/04/15 02:05:57;;;;;;;;;;;;;;;;;;1039304;28;3909;-70
2022/04/15 02:06:34;;;;;;;;;;;;;;;;;;1033662;28;4053;-70
2022/04/15 02:07:04;;;;;;;;;;;;;;;;;;1038080;28;4280;-69
2022/04/15 02:07:35;;;;;;;;;;;;;;;;;;1034040;28;4147;-69
2022/04/15 02:08:05;;;;;;;;;;;;;;;;;;1032639;28;3249;-71
2022/04/15 02:08:36;;;;;;;;;;;;;;;;;;1031085;28;4458;-69
2022/04/15 02:09:06;;;;;;;;;;;;;;;;;;1031915;28;3351;-69
2022/04/15 02:09:36;;;;;;;;;;;;;;;;;;1032727;28;3993;-71
2022/04/15 02:10:07;;;;;;;;;;;;;;;;;;1032596;28;2602;-69
2022/04/15 02:10:37;;;;;;;;;;;;;;;;;;1031482;28;4060;-70
2022/04/15 02:11:07;;;;;;;;;;;;;;;;;;1032348;28;2649;-69
2022/04/15 02:11:37;;;;;;;;;;;;;;;;;;1031530;28;3799;-70
2022/04/15 02:12:08;;;;;;;;;;;;;;;;;;1032947;28;1937;-69
2022/04/15 02:12:38;;;;;;;;;;;;;;;;;;1031872;28;4217;-70
2022/04/15 02:13:09;;;;;;;;;;;;;;;;;;1032286;28;3399;-69
2022/04/15 02:13:39;;;;;;;;;;;;;;;;;;1033013;28;3762;-70
2022/04/15 02:14:09;;;;;;;;;;;;;;;;;;1031828;28;2244;-70
2022/04/15 02:14:39;;;;;;;;;;;;;;;;;;1030832;28;4070;-70
2022/04/15 02:15:10;;;;;;;;;;;;;;;;;;1031827;28;2798;-70
2022/04/15 02:15:41;;;;;;;;;;;;;;;;;;1032046;28;4371;-69
2022/04/15 02:16:11;;;;;;;;;;;;;;;;;;1031644;28;4394;-69
2022/04/15 02:16:41;;;;;;;;;;;;;;;;;;1031733;28;4238;-69
2022/04/15 02:17:18;;;;;;;;;;;;;;;;;;1032833;28;1826;-69
2022/04/15 02:17:48;;;;;;;;;;;;;;;;;;1031280;28;4060;-70
2022/04/15 02:18:19;;;;;;;;;;;;;;;;;;1031356;28;3632;-69
2022/04/15 02:18:49;;;;;;;;;;;;;;;;;;1029549;28;3797;-71
2022/04/15 02:19:20;;;;;;;;;;;;;;;;;;1029940;28;2374;-70
2022/04/15 02:19:52;;;;;;;;;;;;;;;;;;1029019;28;4236;-70
2022/04/15 02:20:22;;;;;;;;;;;;;;;;;;1033788;28;3691;-69
2022/04/15 02:20:53;;;;;;;;;;;;;;;;;;1038769;28;4384;-69
2022/04/15 02:21:23;;;;;;;;;;;;;;;;;;1039685;28;3653;-70
2022/04/15 02:21:53;;;;;;;;;;;;;;;;;;1035243;28;3887;-69
2022/04/15 02:22:23;;;;;;;;;;;;;;;;;;1031743;28;2472;-71
2022/04/15 02:22:54;;;;;;;;;;;;;;;;;;1030469;28;4505;-70
2022/04/15 02:23:24;;;;;;;;;;;;;;;;;;1031355;28;2976;-69
2022/04/15 02:23:54;;;;;;;;;;;;;;;;;;1032441;28;3822;-70
2022/04/15 02:24:25;;;;;;;;;;;;;;;;;;1033962;28;3707;-70
2022/04/15 02:24:55;;;;;;;;;;;;;;;;;;1032000;28;3795;-70
2022/04/15 02:25:25;;;;;;;;;;;;;;;;;;1031609;28;2671;-70
2022/04/15 02:25:55;;;;;;;;;;;;;;;;;;1031972;28;3864;-71
2022/04/15 02:26:26;;;;;;;;;;;;;;;;;;1031769;28;3372;-70
2022/04/15 02:26:57;;;;;;;;;;;;;;;;;;1032254;28;4629;-69
2022/04/15 02:27:27;;;;;;;;;;;;;;;;;;1031025;28;4080;-70
2022/04/15 02:27:57;;;;;;;;;;;;;;;;;;1032461;28;4186;-70
2022/04/15 02:28:28;;;;;;;;;;;;;;;;;;1031806;28;3287;-69
2022/04/15 02:28:58;;;;;;;;;;;;;;;;;;1032635;28;3784;-70
2022/04/15 02:29:28;;;;;;;;;;;;;;;;;;1031704;28;3964;-70
2022/04/15 02:29:58;;;;;;;;;;;;;;;;;;1031093;28;3977;-70
2022/04/15 02:30:29;;;;;;;;;;;;;;;;;;1030671;28;3225;-70
2022/04/15 02:30:59;;;;;;;;;;;;;;;;;;1032956;28;3967;-69
2022/04/15 02:31:29;;;;;;;;;;;;;;;;;;1031064;28;4058;-70
2022/04/15 02:31:59;;;;;;;;;;;;;;;;;;1031606;28;4706;-69
2022/04/15 02:32:30;;;;;;;;;;;;;;;;;;1031606;28;3843;-70
2022/04/15 02:33:00;;;;;;;;;;;;;;;;;;1031271;28;3831;-70
2022/04/15 02:33:31;;;;;;;;;;;;;;;;;;1031877;28;4248;-69
2022/04/15 02:34:01;;;;;;;;;;;;;;;;;;1036333;28;2647;-69
2022/04/15 02:34:32;;;;;;;;;;;;;;;;;;1034292;28;4477;-70
2022/04/15 02:35:03;;;;;;;;;;;;;;;;;;1035029;28;2913;-70
2022/04/15 02:35:33;;;;;;;;;;;;;;;;;;1034775;28;4155;-71
2022/04/15 02:36:04;;;;;;;;;;;;;;;;;;1030534;28;3291;-70
2022/04/15 02:36:34;;;;;;;;;;;;;;;;;;1029590;28;3972;-70
2022/04/15 02:37:04;;;;;;;;;;;;;;;;;;1036749;28;1626;-69
2022/04/15 02:37:35;;;;;;;;;;;;;;;;;;1035949;28;3824;-69
2022/04/15 02:38:05;;;;;;;;;;;;;;;;;;1039787;28;3417;-70
2022/04/15 02:38:35;;;;;;;;;;;;;;;;;;1035152;28;3931;-69
2022/04/15 02:39:10;;;;;;;;;;;;;;;;;;1031590;28;3436;-69
2022/04/15 02:39:40;;;;;;;;;;;;;;;;;;1030654;28;4358;-70
2022/04/15 02:40:10;;;;;;;;;;;;;;;;;;1037196;28;1656;-70
2022/04/15 02:40:42;;;;;;;;;;;;;;;;;;1039513;28;3809;-72
2022/04/15 02:41:12;;;;;;;;;;;;;;;;;;1040228;28;3734;-70
2022/04/15 02:41:42;;;;;;;;;;;;;;;;;;1033743;28;3962;-70
2022/04/15 02:42:13;;;;;;;;;;;;;;;;;;1032341;28;2104;-70
2022/04/15 02:42:43;;;;;;;;;;;;;;;;;;1031061;28;3979;-71
2022/04/15 02:43:14;;;;;;;;;;;;;;;;;;1031671;28;2954;-70
2022/04/15 02:43:45;;;;;;;;;;;;;;;;;;1032254;28;3770;-70
2022/04/15 02:44:15;;;;;;;;;;;;;;;;;;1030964;28;3859;-69
2022/04/15 02:44:45;;;;;;;;;;;;;;;;;;1031595;28;4674;-70
2022/04/15 02:45:16;;;;;;;;;;;;;;;;;;1031877;28;2217;-70
2022/04/15 02:45:47;;;;;;;;;;;;;;;;;;1031258;28;4616;-70
2022/04/15 02:46:18;;;;;;;;;;;;;;;;;;1033277;28;4452;-70
2022/04/15 02:46:48;;;;;;;;;;;;;;;;;;1032156;28;3828;-70
2022/04/15 02:47:18;;;;;;;;;;;;;;;;;;1031479;28;3204;-70
2022/04/15 02:47:49;;;;;;;;;;;;;;;;;;1031546;28;3883;-71
2022/04/15 02:48:19;;;;;;;;;;;;;;;;;;1032813;28;2580;-71
2022/04/15 02:48:49;;;;;;;;;;;;;;;;;;1032210;28;4081;-69
2022/04/15 02:49:20;;;;;;;;;;;;;;;;;;1032184;28;4937;-69
2022/04/15 02:49:50;;;;;;;;;;;;;;;;;;1032282;28;4536;-69
2022/04/15 02:50:21;;;;;;;;;;;;;;;;;;1031589;28;3277;-70
2022/04/15 02:50:51;;;;;;;;;;;;;;;;;;1032450;28;4446;-70
2022/04/15 02:51:22;;;;;;;;;;;;;;;;;;1031201;28;4526;-69
2022/04/15 02:51:53;;;;;;;;;;;;;;;;;;1032368;28;4128;-70
2022/04/15 02:52:23;;;;;;;;;;;;;;;;;;1032954;28;3744;-69
2022/04/15 02:52:53;;;;;;;;;;;;;;;;;;1032673;28;4002;-69
2022/04/15 02:53:24;;;;;;;;;;;;;;;;;;1031725;28;2487;-69
2022/04/15 02:53:54;;;;;;;;;;;;;;;;;;1031331;28;4092;-70
2022/04/15 02:54:24;;;;;;;;;;;;;;;;;;1030900;28;4357;-69
2022/04/15 02:54:55;;;;;;;;;;;;;;;;;;1031633;28;4083;-69
2022/04/15 02:55:25;;;;;;;;;;;;;;;;;;1031361;28;3578;-70
2022/04/15 02:55:57;;;;;;;;;;;;;;;;;;1032217;28;4258;-69
2022/04/15 02:56:33;;;;;;;;;;;;;;;;;;1031331;28;4028;-69
2022/04/15 02:57:04;;;;;;;;;;;;;;;;;;1033089;28;2836;-70
2022/04/15 02:57:34;;;;;;;;;;;;;;;;;;1035231;28;4454;-69
2022/04/15 02:58:04;;;;;;;;;;;;;;;;;;1035609;28;4027;-69
2022/04/15 02:58:34;;;;;;;;;;;;;;;;;;1035663;28;3927;-69
2022/04/15 02:59:05;;;;;;;;;;;;;;;;;;1036377;28;2191;-69
2022/04/15 02:59:35;;;;;;;;;;;;;;;;;;1030566;28;3910;-69
2022/04/15 03:00:06;;;;;;;;;;;;;;;;;;1032127;28;3722;-70
2022/04/15 03:00:36;;;;;;;;;;;;;;;;;;1027461;28;3974;-70
2022/04/15 03:01:06;;;;;;;;;;;;;;;;;;1028230;28;2951;-70
2022/04/15 03:01:37;;;;;;;;;;;;;;;;;;1026820;28;3817;-70
2022/04/15 03:02:07;;;;;;;;;;;;;;;;;;1032023;28;1926;-70
2022/04/15 03:02:37;;;;;;;;;;;;;;;;;;1034471;28;4275;-70
2022/04/15 03:03:08;;;;;;;;;;;;;;;;;;1036022;28;3257;-69
2022/04/15 03:03:38;;;;;;;;;;;;;;;;;;1034990;28;3990;-70
2022/04/15 03:04:08;;;;;;;;;;;;;;;;;;1036130;28;1997;-70
2022/04/15 03:04:38;;;;;;;;;;;;;;;;;;1032322;28;4176;-71
2022/04/15 03:05:09;;;;;;;;;;;;;;;;;;1028517;28;3733;-69
2022/04/15 03:05:39;;;;;;;;;;;;;;;;;;1023191;28;4039;-70
2022/04/15 03:06:23;;;;;;;;;;;;;;;;;;1026946;28;3588;-70
2022/04/15 03:07:00;;;;;;;;;;;;;;;;;;1033603;28;3916;-70
2022/04/15 03:07:30;;;;;;;;;;;;;;;;;;1034647;28;3837;-69
2022/04/15 03:08:00;;;;;;;;;;;;;;;;;;1041650;28;3405;-70
2022/04/15 03:08:31;;;;;;;;;;;;;;;;;;1040723;28;3911;-70
2022/04/15 03:09:01;;;;;;;;;;;;;;;;;;1035875;28;1708;-69
2022/04/15 03:09:31;;;;;;;;;;;;;;;;;;1035560;28;4081;-69
2022/04/15 03:10:02;;;;;;;;;;;;;;;;;;1024299;28;2144;-70
2022/04/15 03:10:33;;;;;;;;;;;;;;;;;;1023338;28;4106;-69
2022/04/15 03:11:04;;;;;;;;;;;;;;;;;;1026746;28;1953;-69
2022/04/15 03:11:37;;;;;;;;;;;;;;;;;;1026474;28;3898;-70
2022/04/15 03:12:08;;;;;;;;;;;;;;;;;;1034144;28;1976;-69
2022/04/15 03:12:45;;;;;;;;;;;;;;;;;;1032217;28;4406;-69
2022/04/15 03:13:15;;;;;;;;;;;;;;;;;;1036191;28;4135;-69
2022/04/15 03:13:46;;;;;;;;;;;;;;;;;;1036933;28;3837;-70
2022/04/15 03:14:17;;;;;;;;;;;;;;;;;;1030739;28;3885;-71
2022/04/15 03:14:49;;;;;;;;;;;;;;;;;;1030286;28;4074;-69
2022/04/15 03:15:19;;;;;;;;;;;;;;;;;;1032252;28;3340;-69
2022/04/15 03:15:50;;;;;;;;;;;;;;;;;;1026752;28;4261;-69
2022/04/15 03:16:20;;;;;;;;;;;;;;;;;;1026850;28;3358;-69
2022/04/15 03:16:50;;;;;;;;;;;;;;;;;;1020373;28;3887;-70
2022/04/15 03:17:20;;;;;;;;;;;;;;;;;;1024028;28;1980;-70
2022/04/15 03:17:51;;;;;;;;;;;;;;;;;;1032303;28;3817;-70
2022/04/15 03:18:21;;;;;;;;;;;;;;;;;;1032974;28;2078;-69
2022/04/15 03:18:52;;;;;;;;;;;;;;;;;;1028903;28;3872;-69
2022/04/15 03:19:22;;;;;;;;;;;;;;;;;;1030849;28;4083;-70
2022/04/15 03:19:52;;;;;;;;;;;;;;;;;;1031507;28;3797;-69
2022/04/15 03:20:22;;;;;;;;;;;;;;;;;;1032188;28;1957;-70
2022/04/15 03:20:53;;;;;;;;;;;;;;;;;;1033579;28;3848;-70
2022/04/15 03:21:23;;;;;;;;;;;;;;;;;;1035484;28;2825;-70
2022/04/15 03:21:53;;;;;;;;;;;;;;;;;;1033517;28;3920;-70
2022/04/15 03:22:24;;;;;;;;;;;;;;;;;;1027833;28;1914;-69
2022/04/15 03:22:54;;;;;;;;;;;;;;;;;;1025279;28;3940;-70
2022/04/15 03:23:24;;;;;;;;;;;;;;;;;;1027999;28;3149;-70
2022/04/15 03:23:55;;;;;;;;;;;;;;;;;;1030321;28;4141;-70
2022/04/15 03:24:25;;;;;;;;;;;;;;;;;;1035104;28;1694;-70
2022/04/15 03:24:55;;;;;;;;;;;;;;;;;;1034403;28;3826;-70
2022/04/15 03:25:26;;;;;;;;;;;;;;;;;;1034165;28;1899;-70
2022/04/15 03:25:56;;;;;;;;;;;;;;;;;;1033950;28;3943;-70
2022/04/15 03:26:26;;;;;;;;;;;;;;;;;;1034722;28;1818;-69
2022/04/15 03:26:57;;;;;;;;;;;;;;;;;;1034115;28;3871;-69
2022/04/15 03:27:27;;;;;;;;;;;;;;;;;;1034632;28;2129;-70
2022/04/15 03:27:58;;;;;;;;;;;;;;;;;;1035130;28;3748;-70
2022/04/15 03:28:28;;;;;;;;;;;;;;;;;;1034130;28;1734;-70
2022/04/15 03:28:59;;;;;;;;;;;;;;;;;;1035249;28;4013;-70
2022/04/15 03:29:29;;;;;;;;;;;;;;;;;;1035032;28;4072;-70
2022/04/15 03:30:00;;;;;;;;;;;;;;;;;;1034729;28;3838;-70
2022/04/15 03:30:30;;;;;;;;;;;;;;;;;;1034522;28;4032;-69
2022/04/15 03:31:00;;;;;;;;;;;;;;;;;;1034736;28;3839;-70
2022/04/15 03:31:30;;;;;;;;;;;;;;;;;;1035067;28;4066;-69
2022/04/15 03:32:01;;;;;;;;;;;;;;;;;;1034259;28;2221;-69
2022/04/15 03:32:31;;;;;;;;;;;;;;;;;;1035966;28;3839;-70
2022/04/15 03:33:01;;;;;;;;;;;;;;;;;;1035028;28;2811;-70
2022/04/15 03:33:32;;;;;;;;;;;;;;;;;;1034526;28;4263;-70
2022/04/15 03:34:03;;;;;;;;;;;;;;;;;;1033977;28;2882;-70
2022/04/15 03:34:33;;;;;;;;;;;;;;;;;;1033890;28;4287;-69
2022/04/15 03:35:03;;;;;;;;;;;;;;;;;;1038515;28;1710;-69
2022/04/15 03:35:34;;;;;;;;;;;;;;;;;;1037922;28;4036;-70
2022/04/15 03:36:04;;;;;;;;;;;;;;;;;;1038923;28;3208;-70
2022/04/15 03:36:34;;;;;;;;;;;;;;;;;;1037920;28;4596;-68